Aérodrome :
LOGIN :

S'inscrire | Disclaimer

   EN    FR    IT 

 










Légende :    VFR   VFR Marginal   IFR   IFR Intensif   IFR Très Intensif
Visi : 
Plafond : 
>= 8 km
>= 3000ft
5 à 8 km
1000 à 3000 ft
1500m à 5 km
500 à 1000 ft
800 à 1500m
200 à 500 ft
< 800m
< 200 ft
Symboles :   Orages  Brouillard  Fortes neiges  Fortes précipitations  Vent > 20 kt
SIGMETs :   Divers  Orages  Givrage  Turbulence  Onde Orograph.  Cendres Volcan.







- Altitude de l'aérodrome : 405 ft
- Code IATA : ODH


EGVO - RAF Odiham

DERNIER METAR :
  • 170950Z 23004KT 3000 -DZ BKN004 OVC008 13/13 Q1019 YLO2 TEMPO 6000 BKN006 YLO1

METARs EXPIRÉS :
  • 170850Z 22004KT 5000 -DZ FEW003 BKN004 13/13 Q1018 YLO2 TEMPO 3000 YLO2
  • 170750Z 00000KT 4500 -RADZ SCT004 BKN012 13/12 Q1018 YLO2 TEMPO 8000 BR BKN008 GRN

TAF TAF EGVO
Valide du 17 à 09h jusqu'au 17 à 21h UTC


170728Z 1709/1721 21005KT 9999 BKN008
TEMPO 1709/1721 6000 -RADZ BKN006
PROB40
TEMPO 1709/1718 3000 DZ BKN004
PROB40 1719/1721 BKN018
Pas de NOTAMs connus pour ce terrain.



MET'MAP, la Météo Aéronautique d'un coup d'oeil ! - Copyright ORBIFLY Décembre 2007 - Disclaimer

ORBIFLY MET'MAP TEAM :

Programmation & Développement : Alexandra Zaïnal
Conception & Développement : Baudouin d'Aumeries
Co-Programmation & Développement : Marc-Olivier Méhu
Soutien technique & logistique : Manuel Goepfert

Contact : metmap@orbifly.com




SOURCES & CREDITS :

   NOAA